createdAt,value
2023-02-14T00:00:48.892Z,-0.96
2023-02-14T00:03:15.912Z,-1.05
2023-02-14T00:05:42.534Z,-1.20
2023-02-14T00:08:09.076Z,-1.28
2023-02-14T00:10:35.703Z,-1.34
2023-02-14T00:13:02.220Z,-1.51
2023-02-14T00:15:28.774Z,-1.49
2023-02-14T00:17:59.608Z,-1.51
2023-02-14T00:20:27.355Z,-1.53
2023-02-14T00:22:53.952Z,-1.49
2023-02-14T00:25:20.620Z,-1.63
2023-02-14T00:27:47.292Z,-1.58
2023-02-14T00:30:14.198Z,-1.61
2023-02-14T00:32:42.062Z,-1.58
2023-02-14T00:35:10.047Z,-1.62
2023-02-14T00:37:38.257Z,-1.81
2023-02-14T00:40:06.514Z,-1.71
2023-02-14T00:42:33.135Z,-1.68
2023-02-14T00:44:59.723Z,-1.50
2023-02-14T00:47:26.427Z,-1.43
2023-02-14T00:49:53.239Z,-1.17
2023-02-14T00:52:19.854Z,-0.96
2023-02-14T00:54:46.447Z,-0.73
2023-02-14T00:57:13.050Z,-0.52
2023-02-14T00:59:39.601Z,-0.32
2023-02-14T01:02:06.347Z,-0.17
2023-02-14T01:04:33.091Z,-0.05
2023-02-14T01:06:59.642Z,-0.04
2023-02-14T01:09:26.182Z,0.02
2023-02-14T01:11:52.954Z,0.05
2023-02-14T01:14:19.535Z,0.00
2023-02-14T01:16:46.138Z,0.05
2023-02-14T01:19:13.295Z,0.02
2023-02-14T01:21:39.902Z,0.04
2023-02-14T01:24:07.897Z,0.04
2023-02-14T01:26:35.281Z,0.03
2023-02-14T01:29:02.787Z,0.07
2023-02-14T01:31:33.358Z,-0.27
2023-02-14T01:33:59.990Z,-0.93
2023-02-14T01:36:38.710Z,-1.21
2023-02-14T01:39:08.881Z,-1.16
2023-02-14T01:41:37.481Z,-1.03
2023-02-14T01:44:24.246Z,-0.75
2023-02-14T01:46:50.744Z,-0.60
2023-02-14T01:49:21.982Z,-0.53
2023-02-14T01:51:53.073Z,-0.51
2023-02-14T01:54:23.445Z,-0.36
2023-02-14T01:56:56.152Z,-0.30
2023-02-14T01:59:27.241Z,-0.20
2023-02-14T02:01:54.722Z,-0.17
2023-02-14T02:04:30.424Z,-0.15
2023-02-14T02:07:04.021Z,-0.12
2023-02-14T02:09:34.582Z,-0.07
2023-02-14T02:12:02.674Z,-0.05
2023-02-14T02:14:29.656Z,-0.01
2023-02-14T02:17:02.061Z,0.00
2023-02-14T02:20:05.451Z,0.05
2023-02-14T02:22:40.715Z,-0.06
2023-02-14T02:25:29.050Z,-0.04
2023-02-14T02:28:07.628Z,-0.02
2023-02-14T02:30:46.422Z,0.01
2023-02-14T02:33:31.595Z,0.01
2023-02-14T02:36:23.452Z,0.09
2023-02-14T02:39:09.636Z,0.08
2023-02-14T02:41:54.945Z,0.08
2023-02-14T02:44:44.520Z,0.16
2023-02-14T02:47:29.844Z,0.19
2023-02-14T02:50:38.222Z,0.19
2023-02-14T02:53:22.706Z,0.17
2023-02-14T02:56:16.828Z,0.14
2023-02-14T02:59:18.418Z,0.19
2023-02-14T03:01:52.152Z,0.17
2023-02-14T03:04:39.550Z,0.33
2023-02-14T03:07:27.130Z,0.33
2023-02-14T03:09:57.667Z,0.24
2023-02-14T03:12:33.508Z,0.20
2023-02-14T03:15:15.262Z,0.19
2023-02-14T03:18:13.933Z,0.04
2023-02-14T03:20:46.093Z,0.06
2023-02-14T03:23:23.371Z,-0.03
2023-02-14T03:26:05.349Z,0.10
2023-02-14T03:29:09.213Z,-0.09
2023-02-14T03:31:57.715Z,0.00
2023-02-14T03:34:51.893Z,-0.03
2023-02-14T03:38:12.564Z,-0.07
2023-02-14T03:40:49.410Z,-0.47
2023-02-14T03:43:21.012Z,-0.16
2023-02-14T03:45:59.029Z,-0.09
2023-02-14T03:48:28.400Z,-0.19
2023-02-14T03:50:57.009Z,-0.28
2023-02-14T03:53:28.336Z,-0.35
2023-02-14T03:56:04.135Z,-0.37
2023-02-14T03:58:34.963Z,-0.34
2023-02-14T04:01:23.496Z,-0.30
2023-02-14T04:03:52.588Z,-0.34
2023-02-14T04:06:20.728Z,-0.40
2023-02-14T04:08:47.251Z,-0.36
2023-02-14T04:11:14.439Z,-0.44
2023-02-14T04:13:41.078Z,-0.46
2023-02-14T04:16:07.926Z,-0.37
2023-02-14T04:18:53.367Z,-0.51
2023-02-14T04:21:20.178Z,-0.55
2023-02-14T04:23:46.691Z,-0.63
2023-02-14T04:26:13.256Z,-0.68
2023-02-14T04:28:39.900Z,-0.66
2023-02-14T04:31:07.116Z,-0.63
2023-02-14T04:33:33.832Z,-0.66
2023-02-14T04:36:00.865Z,-0.82
2023-02-14T04:38:27.532Z,-0.70
2023-02-14T04:40:54.167Z,-0.74
2023-02-14T04:43:20.783Z,-0.80
2023-02-14T04:45:47.754Z,-0.71
2023-02-14T04:48:14.594Z,-0.70
2023-02-14T04:50:41.271Z,-0.75
2023-02-14T04:53:07.956Z,-0.68
2023-02-14T04:55:34.540Z,-0.70
2023-02-14T04:58:01.081Z,-0.64
2023-02-14T05:00:27.729Z,-0.65
2023-02-14T05:02:54.605Z,-0.61
2023-02-14T05:05:22.338Z,-0.60
2023-02-14T05:07:48.969Z,-0.51
2023-02-14T05:10:15.581Z,-0.56
2023-02-14T05:12:42.194Z,-0.50
2023-02-14T05:15:09.605Z,-0.66
2023-02-14T05:17:36.300Z,-0.57
2023-02-14T05:20:05.862Z,-0.55
2023-02-14T05:22:32.420Z,-0.54
2023-02-14T05:24:59.040Z,-0.50
2023-02-14T05:27:25.584Z,-0.61
2023-02-14T05:29:52.299Z,-0.55
2023-02-14T05:32:18.869Z,-0.45
2023-02-14T05:34:45.367Z,-0.45
2023-02-14T05:37:12.084Z,-0.51
2023-02-14T05:39:38.632Z,-0.56
2023-02-14T05:42:05.239Z,-0.61
2023-02-14T05:44:31.772Z,-0.66
2023-02-14T05:46:58.321Z,-0.74
2023-02-14T05:49:24.860Z,-0.74
2023-02-14T05:51:51.561Z,-0.69
2023-02-14T05:54:18.167Z,-0.82
2023-02-14T05:56:44.704Z,-0.80
2023-02-14T05:59:11.264Z,-0.78
2023-02-14T06:01:37.803Z,-0.73
2023-02-14T06:04:04.392Z,-0.68
2023-02-14T06:06:30.986Z,-0.61
2023-02-14T06:08:57.529Z,-0.72
2023-02-14T06:11:24.041Z,-0.70
2023-02-14T06:13:50.571Z,-0.61
2023-02-14T06:16:17.138Z,-0.46
2023-02-14T06:18:44.408Z,-0.24
2023-02-14T06:21:10.862Z,-0.14
2023-02-14T06:23:37.423Z,-0.05
2023-02-14T06:26:04.116Z,0.05
2023-02-14T06:28:30.725Z,0.00
2023-02-14T06:30:57.414Z,0.17
2023-02-14T06:33:24.176Z,0.29
2023-02-14T06:35:50.775Z,0.56
2023-02-14T06:38:17.323Z,0.75
2023-02-14T06:40:43.903Z,1.01
2023-02-14T06:43:11.491Z,0.99
2023-02-14T06:45:38.169Z,1.16
2023-02-14T06:48:04.914Z,1.41
2023-02-14T06:50:31.436Z,1.69
2023-02-14T06:52:57.994Z,1.88
2023-02-14T06:55:24.654Z,2.03
2023-02-14T06:57:51.259Z,2.14
2023-02-14T07:00:18.576Z,2.34
2023-02-14T07:02:45.126Z,2.24
2023-02-14T07:05:11.832Z,2.15
2023-02-14T07:07:38.423Z,1.98
2023-02-14T07:10:05.592Z,1.92
2023-02-14T07:12:32.242Z,1.74
2023-02-14T07:14:58.778Z,1.58
2023-02-14T07:17:25.425Z,1.43
2023-02-14T07:19:51.984Z,1.42
2023-02-14T07:22:18.554Z,1.32
2023-02-14T07:24:45.120Z,1.32
2023-02-14T07:27:11.708Z,1.40
2023-02-14T07:29:38.250Z,1.44
2023-02-14T07:32:05.156Z,1.49
2023-02-14T07:34:31.751Z,1.55
2023-02-14T07:36:58.458Z,1.77
2023-02-14T07:39:25.025Z,2.13
2023-02-14T07:41:51.745Z,2.36
2023-02-14T07:44:18.304Z,2.58
2023-02-14T07:46:44.994Z,2.85
2023-02-14T07:49:12.051Z,3.02
2023-02-14T07:51:38.625Z,3.28
2023-02-14T07:54:05.204Z,3.40
2023-02-14T07:56:31.937Z,3.70
2023-02-14T07:58:58.613Z,3.94
2023-02-14T08:01:25.338Z,4.19
2023-02-14T08:03:52.717Z,4.40
2023-02-14T08:06:19.617Z,4.68
2023-02-14T08:08:46.956Z,5.14
2023-02-14T08:11:33.927Z,5.39
2023-02-14T08:14:00.831Z,5.54
2023-02-14T08:16:27.370Z,5.88
2023-02-14T08:18:54.114Z,6.46
2023-02-14T08:21:21.070Z,6.90
2023-02-14T08:23:47.706Z,7.53
2023-02-14T08:26:14.526Z,7.85
2023-02-14T08:28:41.127Z,7.77
2023-02-14T08:31:07.695Z,7.46
2023-02-14T08:33:34.289Z,7.30
2023-02-14T08:36:01.000Z,7.84
2023-02-14T08:38:27.513Z,8.23
2023-02-14T08:40:54.092Z,8.68
2023-02-14T08:43:20.733Z,9.43
2023-02-14T08:45:48.556Z,8.89
2023-02-14T08:48:15.121Z,8.86
2023-02-14T08:50:41.878Z,9.05
2023-02-14T08:53:10.639Z,9.10
2023-02-14T08:55:38.019Z,8.74
2023-02-14T08:58:05.297Z,8.12
2023-02-14T09:00:32.897Z,9.27
2023-02-14T09:02:59.698Z,9.91
2023-02-14T09:05:26.585Z,10.26
2023-02-14T09:07:55.913Z,10.20
2023-02-14T09:10:24.141Z,9.44
2023-02-14T09:12:50.856Z,9.25
2023-02-14T09:15:17.451Z,8.74
2023-02-14T09:17:44.458Z,8.35
2023-02-14T09:20:12.891Z,7.68
2023-02-14T09:22:39.746Z,7.13
2023-02-14T09:25:06.881Z,6.53
2023-02-14T09:27:33.545Z,6.09
2023-02-14T09:30:01.440Z,5.89
2023-02-14T09:32:29.334Z,5.96
2023-02-14T09:34:56.035Z,5.85
2023-02-14T09:37:22.640Z,5.60
2023-02-14T09:39:49.186Z,5.49
2023-02-14T09:42:22.559Z,5.56
2023-02-14T09:44:51.829Z,5.57
2023-02-14T09:47:52.023Z,5.61
2023-02-14T09:50:24.822Z,5.70
2023-02-14T09:52:57.855Z,5.63
2023-02-14T09:55:31.100Z,5.74
2023-02-14T09:58:15.138Z,5.87
2023-02-14T10:00:44.430Z,5.75
2023-02-14T10:03:38.432Z,5.84
2023-02-14T10:06:18.665Z,5.81
2023-02-14T10:09:07.854Z,5.83
2023-02-14T10:11:35.166Z,5.84
2023-02-14T10:14:25.991Z,5.90
2023-02-14T10:17:19.620Z,5.94
2023-02-14T10:19:57.388Z,5.92
2023-02-14T10:22:38.467Z,6.05
2023-02-14T10:25:21.010Z,6.10
2023-02-14T10:27:48.192Z,6.22
2023-02-14T10:30:21.400Z,6.38
2023-02-14T10:32:57.119Z,6.45
2023-02-14T10:35:42.925Z,6.33
2023-02-14T10:38:39.105Z,6.30
2023-02-14T10:41:17.940Z,6.18
2023-02-14T10:43:57.013Z,6.22
2023-02-14T10:46:32.451Z,6.16
2023-02-14T10:49:35.980Z,6.13
2023-02-14T10:52:18.088Z,6.28
2023-02-14T10:54:53.462Z,6.33
2023-02-14T10:57:37.139Z,6.39
2023-02-14T11:00:06.911Z,6.44
2023-02-14T11:02:56.670Z,6.49
2023-02-14T11:05:46.152Z,6.47
2023-02-14T11:08:25.700Z,6.59
2023-02-14T11:10:53.920Z,6.57
2023-02-14T11:13:33.133Z,6.68
2023-02-14T11:16:29.796Z,6.81
2023-02-14T11:19:28.668Z,6.71
2023-02-14T11:21:58.217Z,6.58
2023-02-14T11:24:36.468Z,6.52
2023-02-14T11:27:11.871Z,6.43
2023-02-14T11:29:41.246Z,6.44
2023-02-14T11:32:10.593Z,6.46
2023-02-14T11:34:41.006Z,6.48
2023-02-14T11:37:23.006Z,6.44
2023-02-14T11:39:50.968Z,6.40
2023-02-14T11:42:46.545Z,6.48
2023-02-14T11:45:36.831Z,6.41
2023-02-14T11:48:37.085Z,6.52
2023-02-14T11:51:14.169Z,6.43
2023-02-14T11:53:55.973Z,6.44
2023-02-14T11:56:23.982Z,6.49
2023-02-14T11:59:31.618Z,6.51
2023-02-14T12:02:02.990Z,6.46
2023-02-14T12:04:45.780Z,6.50
2023-02-14T12:07:24.391Z,6.55
2023-02-14T12:10:05.727Z,6.62
2023-02-14T12:12:32.409Z,6.61
2023-02-14T12:15:24.105Z,6.59
2023-02-14T12:17:56.947Z,6.56
2023-02-14T12:20:44.123Z,6.57
2023-02-14T12:23:38.217Z,6.47
2023-02-14T12:26:16.665Z,6.43
2023-02-14T12:28:55.722Z,6.46
2023-02-14T12:31:22.324Z,6.53
2023-02-14T12:33:50.543Z,6.42
2023-02-14T12:36:42.445Z,6.35
2023-02-14T12:39:17.944Z,6.35
2023-02-14T12:42:10.226Z,6.40
2023-02-14T12:45:01.757Z,6.26
2023-02-14T12:47:45.273Z,6.38
2023-02-14T12:50:23.946Z,6.31
2023-02-14T12:52:54.179Z,6.34
2023-02-14T12:55:36.628Z,6.32
2023-02-14T12:58:23.979Z,6.19
2023-02-14T13:01:04.151Z,6.08
2023-02-14T13:03:30.638Z,6.10
2023-02-14T13:06:27.950Z,6.09
2023-02-14T13:09:08.078Z,6.10
2023-02-14T13:11:38.711Z,6.12
2023-02-14T13:14:34.663Z,6.05
2023-02-14T13:17:27.531Z,5.95
2023-02-14T13:20:19.005Z,5.95
2023-02-14T13:22:47.107Z,5.91
2023-02-14T13:25:31.017Z,5.88
2023-02-14T13:28:00.575Z,5.91
2023-02-14T13:30:37.653Z,5.90
2023-02-14T13:33:07.967Z,5.88
2023-02-14T13:35:35.243Z,5.87
2023-02-14T13:38:14.127Z,5.97
2023-02-14T13:40:41.433Z,6.00
2023-02-14T13:43:08.013Z,5.98
2023-02-14T13:45:40.260Z,6.01
2023-02-14T13:48:06.753Z,5.91
2023-02-14T13:50:37.185Z,5.78
2023-02-14T13:53:03.810Z,5.82
2023-02-14T13:55:43.527Z,5.84
2023-02-14T13:58:18.403Z,5.81
2023-02-14T14:00:49.508Z,5.88
2023-02-14T14:03:39.119Z,5.90
2023-02-14T14:06:12.944Z,5.77
2023-02-14T14:08:45.612Z,5.83
2023-02-14T14:11:21.093Z,5.84
2023-02-14T14:14:21.406Z,5.83
2023-02-14T14:17:00.799Z,5.81
2023-02-14T14:19:27.318Z,5.79
2023-02-14T14:22:02.657Z,5.70
2023-02-14T14:24:31.232Z,5.80
2023-02-14T14:27:06.422Z,5.76
2023-02-14T14:29:38.500Z,5.70
2023-02-14T14:32:18.246Z,5.67
2023-02-14T14:35:02.886Z,5.69
2023-02-14T14:37:33.211Z,5.66
2023-02-14T14:40:02.076Z,5.55
2023-02-14T14:42:37.844Z,5.58
2023-02-14T14:45:09.060Z,5.56
2023-02-14T14:47:42.568Z,5.59
2023-02-14T14:50:24.369Z,5.59
2023-02-14T14:52:57.063Z,5.50
2023-02-14T14:55:29.558Z,5.62
2023-02-14T14:58:04.697Z,5.48
2023-02-14T15:00:34.506Z,5.65
2023-02-14T15:03:10.181Z,5.70
2023-02-14T15:05:48.476Z,5.68
2023-02-14T15:08:32.894Z,5.64
2023-02-14T15:11:34.370Z,5.60
2023-02-14T15:14:03.357Z,5.62
2023-02-14T15:16:38.259Z,5.55
2023-02-14T15:19:37.234Z,5.57
2023-02-14T15:22:26.283Z,5.55
2023-02-14T15:24:53.585Z,5.56
2023-02-14T15:27:23.076Z,5.64
2023-02-14T15:30:04.551Z,5.60
2023-02-14T15:32:34.816Z,5.59
2023-02-14T15:35:04.316Z,5.59
2023-02-14T15:37:32.158Z,5.55
2023-02-14T15:40:00.021Z,5.57
2023-02-14T15:42:31.691Z,5.58
2023-02-14T15:45:16.670Z,5.57
2023-02-14T15:47:46.798Z,5.51
2023-02-14T15:50:24.384Z,5.51
2023-02-14T15:52:53.158Z,5.61
2023-02-14T15:55:25.433Z,5.55
2023-02-14T15:58:02.966Z,5.50
2023-02-14T16:00:31.794Z,5.49
2023-02-14T16:03:08.810Z,5.43
2023-02-14T16:05:35.366Z,5.51
2023-02-14T16:08:28.728Z,5.52
2023-02-14T16:11:08.928Z,5.52
2023-02-14T16:13:38.244Z,5.53
2023-02-14T16:16:07.769Z,5.53
2023-02-14T16:18:43.225Z,5.55
2023-02-14T16:21:20.232Z,5.55
2023-02-14T16:24:08.104Z,5.42
2023-02-14T16:26:38.133Z,5.49
2023-02-14T16:29:06.203Z,5.44
2023-02-14T16:31:33.773Z,5.43
2023-02-14T16:34:00.883Z,5.43
2023-02-14T16:36:32.981Z,5.42
2023-02-14T16:39:04.771Z,5.45
2023-02-14T16:41:33.215Z,5.48
2023-02-14T16:44:00.327Z,5.51
2023-02-14T16:46:31.857Z,5.60
2023-02-14T16:48:58.539Z,5.66
2023-02-14T16:51:28.387Z,5.67
2023-02-14T16:53:58.952Z,5.61
2023-02-14T16:56:55.850Z,5.62
2023-02-14T16:59:22.731Z,5.53
2023-02-14T17:01:49.412Z,5.66
2023-02-14T17:04:16.107Z,5.57
2023-02-14T17:06:49.179Z,5.39
2023-02-14T17:09:19.502Z,5.53
2023-02-14T17:11:51.081Z,5.48
2023-02-14T17:14:21.405Z,5.54
2023-02-14T17:16:48.619Z,5.50
2023-02-14T17:19:15.306Z,5.55
2023-02-14T17:21:42.023Z,5.57
2023-02-14T17:24:08.556Z,5.62
2023-02-14T17:26:35.231Z,5.60
2023-02-14T17:29:01.765Z,5.51
2023-02-14T17:31:28.753Z,5.51
2023-02-14T17:33:55.715Z,5.46
2023-02-14T17:36:24.128Z,5.47
2023-02-14T17:38:52.864Z,5.48
2023-02-14T17:41:25.041Z,5.50
2023-02-14T17:43:54.885Z,5.51
2023-02-14T17:46:22.049Z,5.54
2023-02-14T17:48:49.140Z,5.55
2023-02-14T17:51:17.441Z,5.46
2023-02-14T17:53:44.084Z,5.51
2023-02-14T17:56:21.831Z,5.45
2023-02-14T17:58:50.793Z,5.49
2023-02-14T18:01:24.114Z,5.51
2023-02-14T18:03:54.097Z,5.43
2023-02-14T18:06:21.484Z,5.44
2023-02-14T18:08:57.138Z,5.39
2023-02-14T18:11:26.811Z,5.36
2023-02-14T18:13:55.460Z,5.30
2023-02-14T18:16:22.116Z,5.34
2023-02-14T18:18:48.761Z,5.34
2023-02-14T18:21:16.998Z,5.36
2023-02-14T18:23:43.624Z,5.23
2023-02-14T18:26:13.284Z,5.40
2023-02-14T18:28:40.062Z,5.28
2023-02-14T18:31:14.952Z,5.43
2023-02-14T18:33:41.975Z,5.44
2023-02-14T18:36:14.530Z,5.40
2023-02-14T18:38:42.977Z,5.25
2023-02-14T18:41:15.348Z,5.25
2023-02-14T18:43:42.744Z,5.27
2023-02-14T18:46:10.294Z,5.22
2023-02-14T18:48:37.311Z,5.22
2023-02-14T18:51:09.438Z,5.26
2023-02-14T18:53:37.337Z,5.29
2023-02-14T18:56:17.822Z,5.21
2023-02-14T18:58:47.601Z,5.12
2023-02-14T19:01:39.601Z,5.12
2023-02-14T19:04:08.985Z,5.19
2023-02-14T19:06:36.368Z,5.18
2023-02-14T19:09:03.670Z,5.13
2023-02-14T19:11:31.816Z,5.13
2023-02-14T19:14:00.585Z,5.12
2023-02-14T19:16:30.015Z,5.08
2023-02-14T19:18:57.979Z,5.13
2023-02-14T19:21:27.212Z,5.08
2023-02-14T19:23:56.336Z,5.10
2023-02-14T19:26:27.679Z,5.06
2023-02-14T19:28:59.829Z,5.06
2023-02-14T19:31:27.489Z,5.03
2023-02-14T19:33:54.781Z,5.08
2023-02-14T19:36:23.390Z,5.05
2023-02-14T19:38:52.762Z,4.94
2023-02-14T19:41:29.814Z,4.87
2023-02-14T19:43:58.486Z,4.80
2023-02-14T19:46:26.302Z,4.83
2023-02-14T19:48:52.916Z,4.84
2023-02-14T19:51:25.816Z,4.91
2023-02-14T19:53:54.639Z,4.92
2023-02-14T19:56:33.473Z,4.93
2023-02-14T19:59:00.266Z,4.97
2023-02-14T20:01:46.278Z,4.96
2023-02-14T20:04:16.188Z,4.96
2023-02-14T20:06:45.008Z,4.89
2023-02-14T20:09:12.237Z,4.94
2023-02-14T20:11:46.447Z,4.88
2023-02-14T20:14:14.234Z,4.91
2023-02-14T20:16:41.325Z,4.84
2023-02-14T20:19:16.596Z,4.89
2023-02-14T20:21:47.966Z,4.91
2023-02-14T20:24:21.301Z,4.85
2023-02-14T20:26:49.201Z,4.90
2023-02-14T20:29:17.320Z,4.86
2023-02-14T20:31:46.629Z,4.82
2023-02-14T20:34:13.942Z,4.77
2023-02-14T20:36:41.859Z,4.68
2023-02-14T20:39:10.868Z,4.69
2023-02-14T20:41:37.752Z,4.70
2023-02-14T20:44:09.795Z,4.62
2023-02-14T20:46:36.563Z,4.46
2023-02-14T20:49:03.985Z,4.54
2023-02-14T20:51:30.445Z,4.56
2023-02-14T20:53:56.964Z,4.53
2023-02-14T20:56:24.288Z,4.57
2023-02-14T20:58:50.955Z,4.61
2023-02-14T21:01:21.117Z,4.50
2023-02-14T21:03:50.871Z,4.37
2023-02-14T21:06:24.140Z,4.52
2023-02-14T21:08:51.198Z,4.53
2023-02-14T21:11:20.004Z,4.47
2023-02-14T21:13:47.072Z,4.32
2023-02-14T21:16:16.479Z,4.35
2023-02-14T21:18:48.601Z,4.38
2023-02-14T21:21:22.414Z,4.36
2023-02-14T21:23:50.611Z,4.32
2023-02-14T21:26:18.396Z,4.34
2023-02-14T21:28:45.211Z,4.35
2023-02-14T21:31:14.531Z,4.22
2023-02-14T21:33:41.220Z,4.22
2023-02-14T21:36:09.286Z,4.10
2023-02-14T21:38:36.562Z,4.02
2023-02-14T21:41:05.112Z,4.03
2023-02-14T21:43:36.729Z,3.96
2023-02-14T21:46:07.294Z,3.83
2023-02-14T21:48:52.616Z,3.88
2023-02-14T21:51:19.411Z,3.81
2023-02-14T21:53:46.667Z,3.79
2023-02-14T21:56:18.074Z,3.75
2023-02-14T21:58:44.881Z,3.70
2023-02-14T22:01:16.998Z,3.64
2023-02-14T22:03:43.637Z,3.58
2023-02-14T22:06:10.454Z,3.47
2023-02-14T22:08:37.038Z,3.56
2023-02-14T22:11:08.946Z,3.51
2023-02-14T22:13:36.247Z,3.48
2023-02-14T22:16:04.010Z,3.37
2023-02-14T22:18:31.396Z,3.41
2023-02-14T22:37:11.592Z,4.01
2023-02-14T22:39:38.145Z,3.90
2023-02-14T22:42:06.904Z,3.63
2023-02-14T22:44:33.466Z,3.50
2023-02-14T22:47:01.243Z,3.50
2023-02-14T22:49:27.923Z,3.55
2023-02-14T22:51:54.469Z,3.53
2023-02-14T22:54:21.350Z,3.46
2023-02-14T22:56:49.213Z,3.45
2023-02-14T22:59:21.667Z,3.33
2023-02-14T23:01:50.008Z,3.25
2023-02-14T23:04:18.350Z,3.30
2023-02-14T23:06:45.184Z,3.28
2023-02-14T23:09:12.765Z,3.20
2023-02-14T23:11:41.057Z,3.32
2023-02-14T23:14:26.971Z,3.30
2023-02-14T23:17:11.795Z,3.31
2023-02-14T23:19:56.893Z,3.07
2023-02-14T23:22:26.887Z,3.29
2023-02-14T23:24:55.359Z,3.28
2023-02-14T23:27:29.602Z,3.27
2023-02-14T23:29:56.256Z,3.22
2023-02-14T23:32:22.815Z,3.38
2023-02-14T23:34:49.416Z,3.25
2023-02-14T23:37:16.002Z,3.21
2023-02-14T23:39:43.159Z,3.19
2023-02-14T23:42:13.744Z,3.22
2023-02-14T23:44:41.984Z,3.23
2023-02-14T23:47:10.141Z,3.27
2023-02-14T23:49:38.981Z,3.25
2023-02-14T23:52:08.012Z,3.22
2023-02-14T23:54:34.993Z,3.16
2023-02-14T23:57:01.732Z,3.26
2023-02-14T23:59:28.346Z,3.34
